Los datos mostrados corresponden al resumen diario obtenido de los registros semihorarios entre las 0:00 y las 24:00 h, en horario solar.
| Estación | Fecha | V Km/h | DV | Vx Km/h | T ºC | Tn ºC | Tx ºC | H frío | HR % | Rad MJ/m2 día | H sol | P mm | ETo mm |
|---|---|---|---|---|---|---|---|---|---|---|---|---|---|
| Almoradí | 05/05/2026 | 4.9 | SO | 21.45 | 19.96 | 14.25 | 27 | 0 | 57.56 | 25.02 | 12.01 | 0 | 4.89 |
| Elx | 05/05/2026 | 5.62 | N | 25.24 | 20.5 | 14.76 | 26.03 | 0 | 58.01 | 28.92 | 11.97 | 0 | 5.34 |
| Callosa d'En Sarrià | 04/05/2026 | 1.79 | N | 13.3 | 17.85 | 13.4 | 22.35 | 0 | 83.6 | 12.8 | 8.57 | 2.4 | 2.4 |
| Callosa d'En Sarrià (malla) | 04/05/2026 | 0.75 | E | 8.57 | 18.01 | 13.37 | 23.12 | 0 | 69 | 10.06 | 7.81 | 2 | 2.03 |
| Catral | 05/05/2026 | 4.55 | S | 21.77 | 19.23 | 10.68 | 26.55 | 0 | 60.91 | 25.65 | 12.14 | 0 | 4.79 |
| Altea | 05/05/2026 | 4.46 | SO | 21.03 | 18.62 | 14.08 | 23.55 | 0 | 70.6 | 25.13 | 11.83 | 0 | 4.36 |
| Planes | 05/05/2026 | 1.97 | E | 13.58 | 15.67 | 7.71 | 24.78 | 0 | 68.54 | 22.04 | 11.5 | 0.2 | 3.65 |
| Villena | 05/05/2026 | 4.91 | O | 20.71 | 15.64 | 8.25 | 23.61 | 0 | 62.61 | 23.76 | 11.25 | 0 | 4.34 |
| Camp de Mirra | 05/05/2026 | 4.37 | NO | 22.83 | 15.15 | 8.5 | 22.77 | 0 | 59.84 | 21.91 | 10.74 | 0 | 4.02 |
| Agost | 05/05/2026 | 4.54 | E | 19.09 | 18.31 | 11.91 | 25.34 | 0 | 30.23 | 22.56 | 11.63 | 0 | 4.72 |
| Orihuela - La Murada | 05/05/2026 | 4.11 | SO | 19.05 | 19.07 | 12.11 | 26.13 | 0 | 51.82 | 25.61 | 12.17 | 0 | 4.73 |
| Villajoyosa | 05/05/2026 | 3.08 | SO | 15.31 | 18.1 | 13.43 | 23.14 | 0 | 68.8 | 25.81 | 11.79 | 0 | 4.3 |
| Ondara | 05/05/2026 | 3.01 | SE | 20.15 | 17.98 | 11.66 | 24.42 | 0 | 75.5 | 16.61 | 9.96 | 0.6 | 3.18 |
| Dénia | 05/05/2026 | 3.37 | O | 16.76 | 17.7 | 10.45 | 24.39 | 0 | 74.2 | 17.49 | 11.3 | 1.85 | 3.42 |
| Pinoso | 05/05/2026 | 6.33 | NO | 23.78 | 16.41 | 10.81 | 22.92 | 0 | 46.7 | 25.03 | 11.4 | 0 | 4.82 |
| Monforte del Cid | 05/05/2026 | 6.26 | N | 24.03 | 19.07 | 13.32 | 25.38 | 0 | 46.4 | 24.27 | 11.87 | 0 | 5.03 |
| Crevillent | 05/05/2026 | 4.26 | SE | 20.67 | 19.9 | 13.78 | 26.39 | 0 | 59.65 | 25.17 | 11.97 | 0.2 | 4.77 |
| Vall d'Uixó | 05/05/2026 | 3.09 | NE | 14.29 | 17.38 | 12.49 | 23.29 | 0 | 77.4 | 22.13 | 11.81 | 0 | 3.64 |
| Vila-real | 05/05/2026 | 6.28 | N | 20.67 | 17.11 | 13.02 | 22.35 | 0 | 80.7 | 20.19 | 10.72 | 2.9 | 3.63 |
| Onda | 05/05/2026 | 4.92 | N | 18.21 | 15.9 | 11.84 | 20.87 | 0 | 85.2 | 17.77 | 11.05 | 1.99 | 3.12 |
| San Rafael del Río | 05/05/2026 | 4.8 | N | 18.27 | 13.76 | 10.02 | 19.69 | 0 | 87.7 | 15.92 | 10.29 | 4.85 | 2.73 |
| Castelló de la Plana | 05/05/2026 | 3.31 | NO | 13.02 | 15.62 | 11.33 | 22.01 | 0 | 87.7 | 17.55 | 10.96 | 2.19 | 2.95 |
| Ribera de Cabanes | 05/05/2026 | 4.13 | O | 14.61 | 15.89 | 11.32 | 21.31 | 0 | 72.9 | 21.55 | 10.4 | 14.34 | 3.57 |
| Nules | 05/05/2026 | 5.01 | NE | 16.69 | 16.77 | 12.14 | 22.17 | 0 | 83.5 | 21.57 | 11.13 | 0.2 | 3.52 |
| Segorbe | 05/05/2026 | 2.29 | SE | 15.38 | 15.59 | 9.07 | 23.97 | 0 | 75.8 | 20.52 | 11.92 | 0.2 | 3.52 |
| Pedralba | 05/05/2026 | 3.15 | SO | 18.73 | 18.02 | 10.74 | 25.36 | 0 | 61.55 | 26.63 | 11.78 | 0 | 4.54 |
| Benavites | 05/05/2026 | 4.25 | NE | 15.63 | 16.43 | 10.07 | 21.2 | 0 | 84 | 19.95 | 11.44 | 0 | 3.25 |
| Moncada | 05/05/2026 | 7.35 | N | 25.78 | 18.61 | 12.17 | 26.87 | 0 | 68.16 | 25.95 | 11.93 | 0 | 5.39 |
| Carcaixent | 05/05/2026 | 3.94 | N | 17.52 | 20.48 | 13.37 | 28.43 | 0 | 59.79 | 21.76 | 12.07 | 0 | 4.45 |
| Carlet | 05/05/2026 | 5.26 | N | 23.85 | 19.74 | 13.35 | 26.69 | 0 | 63.4 | 23.81 | 11.52 | 0.2 | 4.76 |
| Llutxent | 05/05/2026 | 4.38 | N | 25.41 | 17.88 | 11.1 | 23.51 | 0 | 66.47 | 25.56 | 11.21 | 0.1 | 4.46 |
| Requena | 05/05/2026 | 4.23 | N | 23.5 | 14.03 | 5.62 | 21.08 | 2 | 53.82 | 26.43 | 12.2 | 0 | 4.25 |
| Algimia de Alfara | 05/05/2026 | 4.36 | E | 23.11 | 16.81 | 11.07 | 23.22 | 0 | 77.79 | 25.51 | 0 | 0.2 | 4.41 |
| Valencia - UPV | 05/05/2026 | 6.35 | NO | 26.85 | 19.3 | 14.78 | 25.82 | 0 | 65.51 | 21.25 | 12.18 | 0 | 4.77 |
| Algemesí | 04/05/2026 | 2.69 | SE | 17.68 | 18.59 | 15.37 | 24.19 | 0 | 87.1 | 13.79 | 10.8 | 2.4 | 2.74 |
| Picassent | 05/05/2026 | 3.85 | O | 25.56 | 19.04 | 10.6 | 26.58 | 0 | 59.18 | 26.19 | 12.28 | 0 | 4.74 |
| Montesa | 05/05/2026 | 2.24 | SO | 14.75 | 17.99 | 10.51 | 25.18 | 0 | 59.76 | 19.15 | 11 | 0.6 | 3.5 |
| Xàtiva | 05/05/2026 | 2.84 | O | 14.01 | 19.23 | 11.3 | 26.78 | 0 | 59.73 | 22.3 | 11.96 | 0.2 | 4.11 |
| Llíria | 05/05/2026 | 5.83 | NO | 30.49 | 17.96 | 10.56 | 25.08 | 0 | 62.86 | 25.76 | 12.03 | 0.2 | 4.94 |
| Sagunt | 05/05/2026 | 6.22 | NE | 21.63 | 18.12 | 14.11 | 22.39 | 0 | 73.7 | 23.4 | 11.56 | 0.2 | 4.01 |
| Campo Arcís | 05/05/2026 | 4.36 | O | 24.87 | 13.94 | 5.09 | 21.41 | 3.5 | 58.96 | 25.46 | 12.18 | 0 | 4.21 |
| Villalonga | 05/05/2026 | 3.32 | S | 15.95 | 18.98 | 12.59 | 25.27 | 0 | 68.81 | 17.92 | 10.71 | 0 | 3.56 |
| Gandía | 05/05/2026 | 2.89 | N | 21.38 | 19.12 | 12.8 | 25.77 | 0 | 69.58 | 23.17 | 11.47 | 0 | 4.17 |
| Bolbaite | 05/05/2026 | 3.86 | NO | 19.97 | 17.72 | 9.71 | 25.25 | 0 | 60.9 | 16.26 | 11.2 | 0 | 3.49 |
| Bétera | 05/05/2026 | 7.48 | O | 27.36 | 18.47 | 12.55 | 25.46 | 0 | 63.28 | 25.9 | 11.97 | 0 | 5.3 |
| Chulilla | 05/05/2026 | 5.01 | O | 23.18 | 16.63 | 10.75 | 22.44 | 0 | 60.79 | 24.6 | 12.36 | 0.2 | 4.38 |
| Godelleta | 05/05/2026 | 4.19 | O | 19.44 | 17.86 | 10.35 | 24.84 | 0 | 61.99 | 23.2 | 12.17 | 0.2 | 4.34 |
| Bèlgida | 05/05/2026 | 2.79 | O | 16.12 | 17.82 | 10.15 | 25.73 | 0 | 67.76 | 24.85 | 11.01 | 0.2 | 4.24 |
| Polinyà de Xúquer | 05/05/2026 | 3.93 | O | 20.85 | 19.8 | 14.24 | 26.64 | 0 | 64.64 | 23.07 | 12.03 | 0 | 4.44 |
| Benifaió | 05/05/2026 | 3.99 | O | 23.39 | 19.73 | 13.25 | 26.84 | 0 | 61.15 | 25.35 | 11.56 | 0 | 4.73 |
| Cheste | 05/05/2026 | 2.09 | O | 16.02 | 16.28 | 9.01 | 24.3 | 0 | 65.03 | 23.52 | 11.55 | 0.3 | 3.85 |
| Tavernes de la Valldigna | 05/05/2026 | 5.1 | SE | 22.44 | 19.53 | 13.79 | 23.81 | 0 | 73.6 | 24.21 | 12.03 | 0 | 4.42 |
| Castelló | 05/05/2026 | 2.87 | O | 15.1 | 19.78 | 12.93 | 27.12 | 0 | 60.79 | 17.1 | 10.21 | 0 | 3.57 |
© Copyright 2011, Instituto Valenciano de Investigaciones Agrarias.
Los datos meteorológicos ofrecidos es esta página son informativos, por lo que carecen de carácter oficial. Los datos son publicados automáticamente y, por lo tanto, pueden no estar sujetos a una completa validación.
|
Cargando ...espere por favor... |